Time;durP1;ratioP1;P1;durP2;ratioP2;P2;SDS_P1;SDS_P2;PMS_P1;PMS_P2;Temp;Humidity;BMP_temperature;BMP_pressure;BME280_temperature;BME280_humidity;BME280_pressure;Samples;Min_cycle;Max_cycle;Signal;HPM_P1;HPM_P2
2022/02/01 00:01:34;;;;;;;3.38;1.42;;;;;;;;;;5045860;28;20049;-69
2022/02/01 00:04:05;;;;;;;4.18;1.08;;;;;;;;;;5039703;28;20041;-69
2022/02/01 00:06:48;;;;;;;1.83;1.23;;;;;;;;;;5050982;28;20488;-69
2022/02/01 00:09:24;;;;;;;2.85;1.48;;;;;;;;;;5043060;28;20068;-69
2022/02/01 00:12:05;;;;;;;3.97;1.92;;;;;;;;;;5042579;28;20050;-69
2022/02/01 00:14:52;;;;;;;4.15;1.50;;;;;;;;;;5037905;28;20132;-69
2022/02/01 00:17:49;;;;;;;2.08;1.02;;;;;;;;;;5046147;28;20052;-69
2022/02/01 00:20:37;;;;;;;2.05;1.30;;;;;;;;;;5001327;28;20524;-69
2022/02/01 00:35:03;;;;;;;3.10;1.50;;;;;;;;;;5020068;28;20064;-69
2022/02/01 00:37:36;;;;;;;1.83;1.23;;;;;;;;;;5022773;28;20080;-69
2022/02/01 00:40:11;;;;;;;1.75;1.00;;;;;;;;;;5019067;28;20064;-69
2022/02/01 00:42:39;;;;;;;;;;;;;;;;;;5029808;28;20690;-69
2022/02/01 00:45:07;;;;;;;2.60;1.33;;;;;;;;;;5023929;28;19960;-69
2022/02/01 00:47:37;;;;;;;1.90;1.10;;;;;;;;;;5026240;28;20088;-68
2022/02/01 00:50:08;;;;;;;1.75;0.90;;;;;;;;;;5023439;28;20037;-68
2022/02/01 00:52:37;;;;;;;2.75;1.08;;;;;;;;;;5024431;28;20156;-68
2022/02/01 00:55:05;;;;;;;1.92;1.23;;;;;;;;;;5026745;28;20140;-68
2022/02/01 00:57:34;;;;;;;1.00;0.73;;;;;;;;;;5043714;28;20058;-68
2022/02/01 01:00:02;;;;;;;2.13;1.00;;;;;;;;;;5035926;28;20040;-68
2022/02/01 01:02:30;;;;;;;1.88;1.10;;;;;;;;;;5041793;28;20434;-69
2022/02/01 01:05:00;;;;;;;1.33;0.95;;;;;;;;;;5045608;28;20045;-70
2022/02/01 01:07:28;;;;;;;2.22;0.75;;;;;;;;;;5042803;28;20100;-69
2022/02/01 01:09:58;;;;;;;1.08;0.90;;;;;;;;;;5038578;28;20044;-69
2022/02/01 01:12:27;;;;;;;1.52;0.95;;;;;;;;;;5044108;28;20079;-69
2022/02/01 01:15:12;;;;;;;1.08;0.95;;;;;;;;;;5039747;28;20088;-70
2022/02/01 01:18:11;;;;;;;1.55;0.77;;;;;;;;;;5037343;28;20060;-70
2022/02/01 01:43:43;;;;;;;1.35;0.90;;;;;;;;;;5048909;28;20495;-70
2022/02/01 01:53:10;;;;;;;1.75;1.00;;;;;;;;;;5038522;28;20140;-69
2022/02/01 01:55:41;;;;;;;3.35;0.82;;;;;;;;;;5040571;28;20049;-69
2022/02/01 01:58:09;;;;;;;1.85;1.23;;;;;;;;;;5041674;28;20045;-69
2022/02/01 02:00:56;;;;;;;0.82;0.82;;;;;;;;;;5047414;28;20044;-69
2022/02/01 02:03:26;;;;;;;1.02;0.90;;;;;;;;;;5041293;28;20396;-69
2022/02/01 02:05:54;;;;;;;1.10;0.80;;;;;;;;;;5038922;28;20041;-68
2022/02/01 02:08:23;;;;;;;1.30;1.02;;;;;;;;;;5039418;28;20057;-70
2022/02/01 02:10:58;;;;;;;1.83;1.20;;;;;;;;;;5036134;28;20048;-70
2022/02/01 02:16:09;;;;;;;1.48;1.02;;;;;;;;;;5033689;28;20071;-70
2022/02/01 02:18:37;;;;;;;1.75;1.38;;;;;;;;;;5038650;28;20455;-69
2022/02/01 02:21:07;;;;;;;1.50;1.27;;;;;;;;;;5045584;28;20045;-69
2022/02/01 02:23:35;;;;;;;3.10;1.58;;;;;;;;;;5038685;28;20207;-69
2022/02/01 02:26:07;;;;;;;2.35;1.60;;;;;;;;;;5045772;28;20124;-69
2022/02/01 02:28:35;;;;;;;2.67;1.70;;;;;;;;;;5039321;28;20078;-71
2022/02/01 02:31:04;;;;;;;2.38;1.77;;;;;;;;;;5047951;28;20047;-69
2022/02/01 02:33:32;;;;;;;1.90;1.40;;;;;;;;;;5031049;28;20049;-69
2022/02/01 02:36:04;;;;;;;2.60;1.73;;;;;;;;;;5039490;28;20047;-70
2022/02/01 02:38:39;;;;;;;3.28;2.25;;;;;;;;;;5044705;28;20049;-69
2022/02/01 02:47:02;;;;;;;4.32;2.10;;;;;;;;;;5015755;28;20144;-69
2022/02/01 02:49:31;;;;;;;6.13;2.53;;;;;;;;;;5035092;28;20664;-69
2022/02/01 02:51:59;;;;;;;5.18;2.10;;;;;;;;;;5042358;28;20051;-69
2022/02/01 02:54:29;;;;;;;4.03;2.45;;;;;;;;;;5053688;28;20135;-69
2022/02/01 03:00:09;;;;;;;2.55;1.73;;;;;;;;;;5035648;28;20045;-68
2022/02/01 03:02:37;;;;;;;3.28;2.28;;;;;;;;;;5035427;28;20144;-69
2022/02/01 03:05:06;;;;;;;5.28;2.38;;;;;;;;;;5038555;28;20055;-68
2022/02/01 03:07:34;;;;;;;7.50;2.35;;;;;;;;;;5033218;28;20124;-69
2022/02/01 03:10:04;;;;;;;4.05;2.60;;;;;;;;;;5036924;28;20107;-69
2022/02/01 03:12:56;;;;;;;3.95;2.38;;;;;;;;;;5033517;28;20469;-69
2022/02/01 03:15:37;;;;;;;4.05;2.50;;;;;;;;;;5040328;28;20102;-68
2022/02/01 03:20:51;;;;;;;4.72;3.15;;;;;;;;;;5042534;28;20048;-68
2022/02/01 03:23:19;;;;;;;4.53;2.88;;;;;;;;;;5034497;28;20428;-68
2022/02/01 03:25:49;;;;;;;6.50;3.13;;;;;;;;;;5040980;28;20045;-69
2022/02/01 03:28:18;;;;;;;5.70;3.28;;;;;;;;;;5043795;28;20110;-68
2022/02/01 03:30:46;;;;;;;4.25;2.75;;;;;;;;;;5046321;28;20431;-69
2022/02/01 03:33:14;;;;;;;6.47;3.13;;;;;;;;;;5038411;28;20080;-69
2022/02/01 03:35:42;;;;;;;6.45;2.70;;;;;;;;;;5036381;28;20045;-69
2022/02/01 03:38:29;;;;;;;3.86;2.09;;;;;;;;;;2645569;28;10004213;-69
2022/02/01 03:40:58;;;;;;;4.13;2.35;;;;;;;;;;3644604;28;10001511;-69
2022/02/01 03:43:27;;;;;;;4.93;2.30;;;;;;;;;;5032007;28;20088;-69
2022/02/01 03:45:55;;;;;;;4.60;2.38;;;;;;;;;;5031684;28;20047;-69
2022/02/01 03:48:24;;;;;;;4.35;2.53;;;;;;;;;;5045973;28;20107;-69
2022/02/01 03:50:52;;;;;;;5.93;2.80;;;;;;;;;;5035715;28;20124;-69
2022/02/01 03:53:20;;;;;;;6.53;3.05;;;;;;;;;;5042756;28;20128;-69
2022/02/01 03:55:49;;;;;;;5.45;2.90;;;;;;;;;;5038284;28;20070;-69
2022/02/01 03:58:18;;;;;;;5.20;3.40;;;;;;;;;;5048536;28;20551;-69
2022/02/01 04:00:47;;;;;;;6.57;3.05;;;;;;;;;;5035180;28;20131;-69
2022/02/01 04:03:15;;;;;;;5.40;2.72;;;;;;;;;;5046702;28;20584;-68
2022/02/01 04:05:44;;;;;;;7.80;3.30;;;;;;;;;;5029335;28;20054;-69
2022/02/01 04:08:15;;;;;;;7.35;3.47;;;;;;;;;;5021890;28;20049;-69
2022/02/01 04:10:44;;;;;;;4.93;3.22;;;;;;;;;;5015002;28;20570;-69
2022/02/01 04:13:13;;;;;;;8.10;3.75;;;;;;;;;;5014689;28;20080;-69
2022/02/01 04:15:43;;;;;;;7.00;3.95;;;;;;;;;;5034831;28;20547;-69
2022/02/01 04:18:11;;;;;;;9.07;3.65;;;;;;;;;;5054189;28;20056;-69
2022/02/01 04:20:40;;;;;;;6.00;3.15;;;;;;;;;;5035403;28;20051;-69
2022/02/01 04:23:08;;;;;;;7.40;3.05;;;;;;;;;;5045499;28;20041;-69
2022/02/01 04:25:36;;;;;;;6.95;3.67;;;;;;;;;;5038039;28;20088;-69
2022/02/01 04:28:05;;;;;;;7.05;3.30;;;;;;;;;;5033268;28;20545;-70
2022/02/01 04:30:33;;;;;;;9.95;3.65;;;;;;;;;;5044430;28;20459;-69
2022/02/01 04:33:07;;;;;;;10.13;4.45;;;;;;;;;;5045845;28;20487;-69
2022/02/01 04:35:36;;;;;;;6.90;3.47;;;;;;;;;;5039443;28;20090;-69
2022/02/01 04:38:05;;;;;;;8.63;3.45;;;;;;;;;;5043707;28;20100;-69
2022/02/01 04:40:34;;;;;;;8.50;3.38;;;;;;;;;;5042323;28;20060;-69
2022/02/01 04:46:35;;;;;;;8.88;4.10;;;;;;;;;;5044655;28;20068;-69
2022/02/01 04:49:09;;;;;;;8.13;3.70;;;;;;;;;;5039720;28;20590;-69
2022/02/01 04:51:37;;;;;;;6.40;2.78;;;;;;;;;;5039231;28;20136;-69
2022/02/01 04:54:07;;;;;;;10.35;3.70;;;;;;;;;;5049622;28;20136;-70
2022/02/01 04:56:36;;;;;;;7.60;3.15;;;;;;;;;;5047132;28;20047;-69
2022/02/01 04:59:05;;;;;;;9.90;3.90;;;;;;;;;;5048880;28;20143;-69
2022/02/01 05:01:37;;;;;;;7.72;3.88;;;;;;;;;;5044216;28;20053;-69
2022/02/01 05:04:09;;;;;;;12.70;4.28;;;;;;;;;;5051325;28;20068;-69
2022/02/01 05:06:37;;;;;;;11.02;4.00;;;;;;;;;;5034133;28;20053;-70
2022/02/01 05:09:06;;;;;;;8.48;3.83;;;;;;;;;;5042568;28;20466;-69
2022/02/01 05:11:34;;;;;;;9.48;3.90;;;;;;;;;;5043796;28;20045;-70
2022/02/01 05:14:08;;;;;;;5.70;3.30;;;;;;;;;;5043265;28;20048;-69
2022/02/01 05:16:45;;;;;;;11.82;4.13;;;;;;;;;;5045359;28;20045;-68
2022/02/01 05:19:24;;;;;;;11.23;4.30;;;;;;;;;;5039859;28;20560;-69
2022/02/01 05:21:52;;;;;;;8.50;3.72;;;;;;;;;;5046972;28;20083;-69
2022/02/01 05:24:24;;;;;;;6.65;3.25;;;;;;;;;;5041857;28;20059;-69
2022/02/01 05:26:54;;;;;;;7.00;3.42;;;;;;;;;;5044406;28;20147;-69
2022/02/01 05:29:22;;;;;;;8.98;4.03;;;;;;;;;;5035107;28;20149;-69
2022/02/01 05:31:52;;;;;;;8.30;4.00;;;;;;;;;;5031974;28;20441;-69
2022/02/01 05:34:23;;;;;;;6.88;3.45;;;;;;;;;;5045263;28;20140;-69
2022/02/01 05:36:51;;;;;;;10.07;3.20;;;;;;;;;;5047142;28;20051;-69
2022/02/01 05:39:20;;;;;;;6.63;3.55;;;;;;;;;;5048829;28;20564;-69
2022/02/01 05:41:50;;;;;;;8.50;3.53;;;;;;;;;;5043273;28;20468;-68
2022/02/01 05:44:18;;;;;;;9.90;3.67;;;;;;;;;;5040534;28;20045;-68
2022/02/01 05:47:09;;;;;;;7.13;3.77;;;;;;;;;;1302918;28;10023621;-70
2022/02/01 05:49:38;;;;;;;9.65;3.88;;;;;;;;;;4692266;28;10000933;-70
2022/02/01 05:52:07;;;;;;;10.05;4.00;;;;;;;;;;5050782;28;20081;-70
2022/02/01 05:54:37;;;;;;;7.82;3.90;;;;;;;;;;5043553;28;20484;-70
2022/02/01 05:57:06;;;;;;;10.27;3.40;;;;;;;;;;5040771;28;20088;-71
2022/02/01 05:59:34;;;;;;;13.98;5.30;;;;;;;;;;5046153;28;20063;-70
2022/02/01 06:02:03;;;;;;;10.15;4.38;;;;;;;;;;5040646;28;20136;-69
2022/02/01 06:04:31;;;;;;;8.63;3.83;;;;;;;;;;5037966;28;20863;-70
2022/02/01 06:07:01;;;;;;;9.07;4.43;;;;;;;;;;5048087;28;20049;-70
2022/02/01 06:09:30;;;;;;;10.60;4.30;;;;;;;;;;5036089;28;20148;-69
2022/02/01 06:12:01;;;;;;;10.43;4.43;;;;;;;;;;5039993;28;20111;-69
2022/02/01 06:14:31;;;;;;;9.23;4.60;;;;;;;;;;5047944;28;20062;-69
2022/02/01 06:16:59;;;;;;;12.32;4.93;;;;;;;;;;5046778;28;20053;-69
2022/02/01 06:19:27;;;;;;;9.18;5.15;;;;;;;;;;5032428;28;20054;-69
2022/02/01 06:21:56;;;;;;;9.40;4.30;;;;;;;;;;5048522;28;20131;-70
2022/02/01 06:24:25;;;;;;;10.88;4.38;;;;;;;;;;5040087;28;20131;-70
2022/02/01 06:26:54;;;;;;;8.30;4.57;;;;;;;;;;5041804;28;20140;-69
2022/02/01 06:29:24;;;;;;;10.02;4.80;;;;;;;;;;5045763;28;20420;-69
2022/02/01 06:31:53;;;;;;;11.40;4.88;;;;;;;;;;5031691;28;20590;-69
2022/02/01 06:34:21;;;;;;;12.25;5.07;;;;;;;;;;5033825;28;20099;-70
2022/02/01 06:36:49;;;;;;;9.07;4.32;;;;;;;;;;5039648;28;20412;-69
2022/02/01 06:39:20;;;;;;;8.32;4.15;;;;;;;;;;5035348;28;20053;-69
2022/02/01 06:41:50;;;;;;;11.80;5.35;;;;;;;;;;5045050;28;20742;-71
2022/02/01 06:44:18;;;;;;;11.77;4.57;;;;;;;;;;5028906;28;20139;-68
2022/02/01 06:46:46;;;;;;;10.25;3.65;;;;;;;;;;5036972;28;20044;-69
2022/02/01 06:49:15;;;;;;;9.07;3.80;;;;;;;;;;5035839;28;20119;-68
2022/02/01 06:51:43;;;;;;;8.38;4.10;;;;;;;;;;5042269;28;20600;-69
2022/02/01 06:54:13;;;;;;;7.70;3.78;;;;;;;;;;5044678;28;20037;-71
2022/02/01 06:56:42;;;;;;;7.35;3.03;;;;;;;;;;5030881;28;20045;-70
2022/02/01 06:59:12;;;;;;;6.93;4.00;;;;;;;;;;5044475;28;20142;-69
2022/02/01 07:01:40;;;;;;;10.15;3.95;;;;;;;;;;5042282;28;20140;-70
2022/02/01 07:04:09;;;;;;;6.50;3.35;;;;;;;;;;5031506;28;20045;-70
2022/02/01 07:06:37;;;;;;;6.75;3.42;;;;;;;;;;5039650;28;20049;-70
2022/02/01 07:09:05;;;;;;;6.47;3.38;;;;;;;;;;5038933;28;20597;-70
2022/02/01 07:11:37;;;;;;;6.93;3.17;;;;;;;;;;5036737;28;20067;-70
2022/02/01 07:14:05;;;;;;;7.13;3.25;;;;;;;;;;5032878;28;20049;-71
2022/02/01 07:16:36;;;;;;;5.55;2.70;;;;;;;;;;5025659;28;20045;-70
2022/02/01 07:19:04;;;;;;;5.43;2.42;;;;;;;;;;5033789;28;20452;-70
2022/02/01 07:21:33;;;;;;;4.38;2.22;;;;;;;;;;5038298;28;20483;-69
2022/02/01 07:24:02;;;;;;;3.00;1.83;;;;;;;;;;5043672;28;20130;-69
2022/02/01 07:26:31;;;;;;;5.90;2.33;;;;;;;;;;5033454;28;20052;-69
2022/02/01 07:29:00;;;;;;;6.82;2.45;;;;;;;;;;5039642;28;20045;-70
2022/02/01 07:31:28;;;;;;;3.63;1.77;;;;;;;;;;5039717;28;20053;-70
2022/02/01 07:33:59;;;;;;;11.30;2.83;;;;;;;;;;5046351;28;20060;-70
2022/02/01 07:36:39;;;;;;;3.70;2.40;;;;;;;;;;1724731;28;10023460;-70
2022/02/01 07:39:07;;;;;;;7.47;2.08;;;;;;;;;;4002223;28;10001404;-70
2022/02/01 07:41:36;;;;;;;8.73;2.63;;;;;;;;;;5041302;28;20144;-71
2022/02/01 07:44:04;;;;;;;8.13;2.35;;;;;;;;;;5039841;28;20523;-70
2022/02/01 07:46:33;;;;;;;11.85;3.05;;;;;;;;;;5044531;28;20782;-69
2022/02/01 07:49:04;;;;;;;9.02;3.05;;;;;;;;;;5037695;28;20486;-68
2022/02/01 07:51:32;;;;;;;11.95;3.25;;;;;;;;;;5038615;28;20100;-69
2022/02/01 07:54:00;;;;;;;7.53;2.38;;;;;;;;;;5034067;28;20480;-69
2022/02/01 07:56:29;;;;;;;9.02;3.50;;;;;;;;;;5042009;28;20088;-69
2022/02/01 07:58:58;;;;;;;6.82;2.85;;;;;;;;;;5044573;28;20084;-69
2022/02/01 08:01:27;;;;;;;15.25;2.95;;;;;;;;;;5039449;28;20497;-68
2022/02/01 08:03:56;;;;;;;7.60;2.45;;;;;;;;;;5034765;28;21665;-69
2022/02/01 08:06:27;;;;;;;8.90;2.67;;;;;;;;;;5048002;28;20055;-69
2022/02/01 08:08:56;;;;;;;10.52;2.20;;;;;;;;;;5039822;28;20124;-69
2022/02/01 08:11:27;;;;;;;9.82;2.70;;;;;;;;;;5043068;28;20050;-69
2022/02/01 08:16:54;;;;;;;12.27;2.85;;;;;;;;;;5044350;28;20124;-69
2022/02/01 08:19:28;;;;;;;8.63;2.60;;;;;;;;;;5046567;28;20053;-69
2022/02/01 08:22:07;;;;;;;13.73;2.55;;;;;;;;;;5037658;28;20516;-69
2022/02/01 08:24:36;;;;;;;16.23;3.17;;;;;;;;;;5044103;28;20064;-69
2022/02/01 08:27:05;;;;;;;10.95;2.55;;;;;;;;;;5047560;28;20477;-69
2022/02/01 08:29:34;;;;;;;17.23;3.28;;;;;;;;;;5042708;28;20056;-68
2022/02/01 08:32:03;;;;;;;12.55;2.50;;;;;;;;;;5049054;28;20140;-69
2022/02/01 08:34:33;;;;;;;14.02;3.33;;;;;;;;;;5044449;28;20456;-70
2022/02/01 08:37:03;;;;;;;7.45;2.00;;;;;;;;;;5045538;28;20045;-69
2022/02/01 08:39:32;;;;;;;9.80;2.53;;;;;;;;;;5046826;28;20132;-68
2022/02/01 08:42:02;;;;;;;7.75;2.05;;;;;;;;;;5038572;28;20092;-68
2022/02/01 08:44:31;;;;;;;22.20;2.42;;;;;;;;;;5043144;28;20468;-69
2022/02/01 08:47:00;;;;;;;8.70;2.20;;;;;;;;;;5036589;28;20141;-72
2022/02/01 08:49:29;;;;;;;6.82;2.15;;;;;;;;;;5046193;28;20057;-68
2022/02/01 08:52:02;;;;;;;4.35;1.85;;;;;;;;;;5046335;28;20353;-68
2022/02/01 08:54:37;;;;;;;14.18;2.50;;;;;;;;;;5036120;28;20053;-69
2022/02/01 08:57:25;;;;;;;10.70;2.08;;;;;;;;;;5045189;28;20220;-68
2022/02/01 08:59:55;;;;;;;15.18;3.08;;;;;;;;;;5033918;28;20041;-70
2022/02/01 09:02:25;;;;;;;13.18;3.05;;;;;;;;;;5046439;28;20052;-68
2022/02/01 09:04:54;;;;;;;11.95;2.28;;;;;;;;;;5046124;28;20041;-68
2022/02/01 09:07:22;;;;;;;10.73;1.88;;;;;;;;;;5051696;28;20040;-68
2022/02/01 09:10:01;;;;;;;14.90;2.30;;;;;;;;;;3341064;28;10022605;-68
2022/02/01 09:12:29;;;;;;;12.80;3.13;;;;;;;;;;2608342;28;10002442;-68
2022/02/01 09:14:58;;;;;;;14.38;2.97;;;;;;;;;;5044234;28;20053;-68
2022/02/01 09:17:47;;;;;;;17.65;2.80;;;;;;;;;;5038815;28;20191;-68
2022/02/01 09:20:15;;;;;;;6.97;2.13;;;;;;;;;;5045315;28;20060;-68
2022/02/01 09:22:44;;;;;;;9.93;2.30;;;;;;;;;;5040557;28;20048;-68
2022/02/01 09:25:17;;;;;;;11.13;2.63;;;;;;;;;;5038897;28;20045;-68
2022/02/01 09:27:46;;;;;;;14.23;2.15;;;;;;;;;;5033462;28;20046;-69
2022/02/01 09:30:17;;;;;;;4.18;1.40;;;;;;;;;;5031677;28;20049;-68
2022/02/01 09:32:47;;;;;;;15.43;2.60;;;;;;;;;;5040155;28;20576;-69
2022/02/01 09:35:16;;;;;;;7.72;2.20;;;;;;;;;;5047785;28;20041;-69
2022/02/01 09:37:45;;;;;;;12.05;2.58;;;;;;;;;;5050900;28;20575;-68
2022/02/01 09:40:35;;;;;;;7.97;2.22;;;;;;;;;;5045965;28;20052;-69
2022/02/01 09:43:05;;;;;;;11.10;2.28;;;;;;;;;;5045293;28;20049;-69
2022/02/01 09:45:36;;;;;;;3.38;1.63;;;;;;;;;;5042447;28;20045;-69
2022/02/01 09:48:07;;;;;;;6.28;1.98;;;;;;;;;;5044049;28;20571;-69
2022/02/01 09:50:36;;;;;;;13.30;2.20;;;;;;;;;;5048296;28;20051;-69
2022/02/01 09:53:05;;;;;;;5.75;1.95;;;;;;;;;;5048334;28;20056;-69
2022/02/01 09:55:35;;;;;;;13.85;2.50;;;;;;;;;;5025300;28;20040;-69
2022/02/01 09:58:04;;;;;;;7.40;2.50;;;;;;;;;;5035530;28;20397;-69
2022/02/01 10:00:34;;;;;;;7.55;1.88;;;;;;;;;;5045540;28;20125;-70
2022/02/01 10:03:06;;;;;;;8.23;1.77;;;;;;;;;;5040180;28;20045;-70
2022/02/01 10:05:43;;;;;;;7.70;2.22;;;;;;;;;;1492642;28;10021808;-70
2022/02/01 10:08:14;;;;;;;8.27;1.90;;;;;;;;;;3987664;28;10001350;-70
2022/02/01 10:10:55;;;;;;;5.70;1.55;;;;;;;;;;5044974;28;20052;-69
2022/02/01 10:13:23;;;;;;;4.18;1.63;;;;;;;;;;5033315;28;20069;-70
2022/02/01 10:15:57;;;;;;;10.68;1.70;;;;;;;;;;5044855;28;20050;-70
2022/02/01 10:18:30;;;;;;;8.40;2.00;;;;;;;;;;5032422;28;20050;-69
2022/02/01 10:21:07;;;;;;;4.10;1.88;;;;;;;;;;5050260;28;20134;-70
2022/02/01 10:23:39;;;;;;;10.55;1.73;;;;;;;;;;5045992;28;20041;-70
2022/02/01 10:26:10;;;;;;;9.48;1.88;;;;;;;;;;5029707;28;20088;-69
2022/02/01 10:28:46;;;;;;;9.73;2.45;;;;;;;;;;5038876;28;20045;-69
2022/02/01 10:31:17;;;;;;;8.40;1.75;;;;;;;;;;5032080;28;20128;-69
2022/02/01 10:34:01;;;;;;;16.30;1.85;;;;;;;;;;5037750;28;20051;-69
2022/02/01 10:36:37;;;;;;;14.98;1.55;;;;;;;;;;5037505;28;20057;-68
2022/02/01 10:39:17;;;;;;;5.63;1.00;;;;;;;;;;5048715;28;20044;-69
2022/02/01 10:41:58;;;;;;;10.63;1.98;;;;;;;;;;5041683;28;20497;-68
2022/02/01 10:44:38;;;;;;;8.65;2.30;;;;;;;;;;5040447;28;20049;-69
2022/02/01 10:47:07;;;;;;;8.32;1.05;;;;;;;;;;5013872;28;20115;-68
2022/02/01 10:49:55;;;;;;;3.25;1.00;;;;;;;;;;5038030;28;20048;-69
2022/02/01 10:52:24;;;;;;;3.83;1.45;;;;;;;;;;5047068;28;20061;-69
2022/02/01 10:54:53;;;;;;;5.95;1.45;;;;;;;;;;5033643;28;20041;-68
2022/02/01 10:57:24;;;;;;;4.65;1.25;;;;;;;;;;5029990;28;20053;-69
2022/02/01 10:59:53;;;;;;;6.80;1.50;;;;;;;;;;5033298;28;20132;-69
2022/02/01 11:02:22;;;;;;;5.85;0.93;;;;;;;;;;5029684;28;20060;-70
2022/02/01 11:04:53;;;;;;;5.05;1.10;;;;;;;;;;5035219;28;20053;-69
2022/02/01 11:07:22;;;;;;;9.95;2.28;;;;;;;;;;5032761;28;20089;-70
2022/02/01 11:09:50;;;;;;;3.15;1.13;;;;;;;;;;5031223;28;20048;-69
2022/02/01 11:12:19;;;;;;;5.38;1.27;;;;;;;;;;5042840;28;20059;-69
2022/02/01 11:14:50;;;;;;;6.25;1.95;;;;;;;;;;5037512;28;20054;-69
2022/02/01 11:17:20;;;;;;;8.00;1.25;;;;;;;;;;5048556;28;20045;-69
2022/02/01 11:19:52;;;;;;;6.55;1.35;;;;;;;;;;5047173;28;20056;-69
2022/02/01 11:22:43;;;;;;;3.63;1.17;;;;;;;;;;5043368;28;20056;-69
2022/02/01 11:25:20;;;;;;;3.17;1.17;;;;;;;;;;5032877;28;20076;-70
2022/02/01 11:28:00;;;;;;;7.18;1.08;;;;;;;;;;5029005;28;20088;-69
2022/02/01 11:30:36;;;;;;;5.45;1.55;;;;;;;;;;5041196;28;20048;-69
2022/02/01 11:33:05;;;;;;;12.57;1.75;;;;;;;;;;5046210;28;20067;-69
2022/02/01 11:35:34;;;;;;;2.65;1.50;;;;;;;;;;5044216;28;20072;-69
2022/02/01 11:38:08;;;;;;;;;;;;;;;;;;5037733;28;20045;-69
2022/02/01 11:40:38;;;;;;;4.70;1.30;;;;;;;;;;5039443;28;19943;-69
2022/02/01 11:43:27;;;;;;;6.45;1.80;;;;;;;;;;5045707;28;20055;-69
2022/02/01 11:46:07;;;;;;;4.75;1.63;;;;;;;;;;5041293;28;20075;-69
2022/02/01 11:48:39;;;;;;;3.60;1.77;;;;;;;;;;5039237;28;20088;-69
2022/02/01 11:51:09;;;;;;;4.03;1.48;;;;;;;;;;5039069;28;20602;-69
2022/02/01 11:53:38;;;;;;;3.13;1.42;;;;;;;;;;5042468;28;20041;-69
2022/02/01 11:56:07;;;;;;;7.60;2.00;;;;;;;;;;5039718;28;20500;-69
2022/02/01 11:58:37;;;;;;;6.82;1.13;;;;;;;;;;5039946;28;20045;-69
2022/02/01 12:01:08;;;;;;;4.45;1.13;;;;;;;;;;5052327;28;20044;-69
2022/02/01 12:03:42;;;;;;;4.32;1.35;;;;;;;;;;4765794;28;10000774;-69
2022/02/01 12:06:20;;;;;;;2.53;1.20;;;;;;;;;;1377281;28;10002084;-69
2022/02/01 12:08:49;;;;;;;3.17;1.33;;;;;;;;;;5032967;28;20119;-69
2022/02/01 12:11:17;;;;;;;3.13;1.70;;;;;;;;;;5033822;28;20056;-69
2022/02/01 12:13:48;;;;;;;8.57;1.70;;;;;;;;;;5052341;28;20048;-68
2022/02/01 12:16:18;;;;;;;3.28;1.17;;;;;;;;;;5051123;28;20522;-69
2022/02/01 12:18:55;;;;;;;4.55;1.83;;;;;;;;;;5046322;28;20048;-69
2022/02/01 12:21:30;;;;;;;8.52;1.30;;;;;;;;;;5037049;28;20049;-69
2022/02/01 12:24:03;;;;;;;9.80;1.35;;;;;;;;;;5039811;28;20050;-69
2022/02/01 12:26:33;;;;;;;5.50;1.77;;;;;;;;;;5039111;28;20112;-69
2022/02/01 12:29:04;;;;;;;9.48;1.55;;;;;;;;;;5032772;28;20042;-70
2022/02/01 12:31:38;;;;;;;6.50;1.65;;;;;;;;;;5039030;28;20412;-70
2022/02/01 12:34:07;;;;;;;8.32;1.13;;;;;;;;;;5046141;28;20087;-69
2022/02/01 12:36:38;;;;;;;2.78;1.17;;;;;;;;;;5053585;28;20121;-69
2022/02/01 12:39:11;;;;;;;2.63;1.35;;;;;;;;;;5047668;28;20057;-69
2022/02/01 12:41:44;;;;;;;3.25;1.13;;;;;;;;;;5045214;28;20111;-69
2022/02/01 12:47:19;;;;;;;2.97;1.00;;;;;;;;;;4995701;28;20144;-69
2022/02/01 12:50:12;;;;;;;13.48;1.40;;;;;;;;;;5038981;28;20091;-68
2022/02/01 12:52:41;;;;;;;3.97;1.10;;;;;;;;;;5055690;28;20705;-69
2022/02/01 12:55:12;;;;;;;3.85;1.15;;;;;;;;;;5043295;28;20107;-70
2022/02/01 12:58:04;;;;;;;3.13;1.30;;;;;;;;;;5032357;28;20056;-70
2022/02/01 13:00:33;;;;;;;7.55;1.77;;;;;;;;;;5047227;28;20496;-70
2022/02/01 13:03:05;;;;;;;4.07;1.23;;;;;;;;;;5040346;28;20568;-69
2022/02/01 13:05:35;;;;;;;2.45;1.50;;;;;;;;;;5044201;28;20140;-70
2022/02/01 13:08:36;;;;;;;6.53;1.40;;;;;;;;;;5039207;28;20045;-70
2022/02/01 13:16:44;;;;;;;2.50;1.00;;;;;;;;;;5034971;28;20072;-69
2022/02/01 13:22:10;;;;;;;2.00;0.77;;;;;;;;;;5046746;28;20416;-68
2022/02/01 13:24:39;;;;;;;2.95;1.50;;;;;;;;;;5034621;28;20132;-69
2022/02/01 13:27:17;;;;;;;6.32;1.50;;;;;;;;;;5037832;28;20131;-70
2022/02/01 13:29:46;;;;;;;2.08;1.00;;;;;;;;;;5047287;28;20053;-70
2022/02/01 13:32:16;;;;;;;3.20;1.27;;;;;;;;;;5045146;28;20077;-69
2022/02/01 13:34:48;;;;;;;5.10;1.40;;;;;;;;;;5039210;28;20111;-68
2022/02/01 13:37:20;;;;;;;5.40;1.10;;;;;;;;;;5037090;28;20053;-69
2022/02/01 13:39:49;;;;;;;2.22;1.08;;;;;;;;;;5037737;28;20563;-69
2022/02/01 13:42:19;;;;;;;5.45;1.30;;;;;;;;;;5029697;28;20069;-68
2022/02/01 13:44:53;;;;;;;6.40;1.60;;;;;;;;;;5045459;28;20071;-69
2022/02/01 13:47:32;;;;;;;2.15;0.85;;;;;;;;;;5044614;28;20048;-69
2022/02/01 13:50:03;;;;;;;7.68;1.02;;;;;;;;;;5042013;28;20405;-69
2022/02/01 13:52:31;;;;;;;2.47;0.98;;;;;;;;;;5041160;28;20416;-69
2022/02/01 13:55:00;;;;;;;2.80;1.38;;;;;;;;;;5031302;28;20167;-69
2022/02/01 13:57:32;;;;;;;5.13;1.40;;;;;;;;;;5040960;28;20041;-69
2022/02/01 14:00:09;;;;;;;6.75;1.33;;;;;;;;;;5028510;28;20056;-69
2022/02/01 14:02:43;;;;;;;4.88;1.17;;;;;;;;;;5029054;28;20420;-69
2022/02/01 14:05:34;;;;;;;3.13;0.90;;;;;;;;;;2275082;28;10023254;-69
2022/02/01 14:08:23;;;;;;;1.48;1.02;;;;;;;;;;3642938;28;10001283;-69
2022/02/01 14:11:40;;;;;;;1.05;0.90;;;;;;;;;;5037178;28;20398;-69
2022/02/01 14:23:24;;;;;;;1.40;0.90;;;;;;;;;;5040285;28;20041;-69
2022/02/01 14:25:49;;;;;;;3.72;1.30;;;;;;;;;;5037474;28;20278;-69
2022/02/01 14:28:30;;;;;;;11.13;1.23;;;;;;;;;;5036006;28;20437;-69
2022/02/01 14:34:03;;;;;;;2.72;1.10;;;;;;;;;;5039182;28;20049;-69
2022/02/01 14:36:40;;;;;;;4.68;1.05;;;;;;;;;;5028491;28;20477;-69
2022/02/01 14:42:52;;;;;;;4.40;1.30;;;;;;;;;;5034354;28;20055;-69
2022/02/01 14:44:54;;;;;;;2.60;0.80;;;;;;;;;;5029138;28;20059;-69
2022/02/01 14:47:25;;;;;;;4.05;1.13;;;;;;;;;;5037082;28;20095;-70
2022/02/01 14:49:54;;;;;;;2.70;1.00;;;;;;;;;;5040382;28;20089;-69
2022/02/01 14:52:22;;;;;;;4.03;1.88;;;;;;;;;;5033780;28;20055;-69
2022/02/01 14:54:56;;;;;;;1.80;1.00;;;;;;;;;;5032289;28;20144;-68
2022/02/01 15:11:31;;;;;;;5.35;1.00;;;;;;;;;;5033397;28;20628;-68
2022/02/01 15:14:00;;;;;;;3.28;0.60;;;;;;;;;;5040573;28;20119;-68
2022/02/01 15:16:31;;;;;;;2.13;0.85;;;;;;;;;;5037008;28;20045;-68
2022/02/01 15:19:00;;;;;;;0.70;0.57;;;;;;;;;;5044140;28;20043;-68
2022/02/01 15:21:29;;;;;;;2.42;0.88;;;;;;;;;;5038753;28;20049;-68
2022/02/01 15:23:58;;;;;;;0.63;0.55;;;;;;;;;;5034305;28;20493;-69
2022/02/01 15:26:28;;;;;;;1.88;0.88;;;;;;;;;;5040770;28;20497;-69
2022/02/01 15:28:57;;;;;;;2.08;0.82;;;;;;;;;;5040997;28;20107;-70
2022/02/01 15:31:27;;;;;;;2.33;0.98;;;;;;;;;;5037162;28;20461;-68
2022/02/01 15:33:57;;;;;;;2.13;0.65;;;;;;;;;;5042260;28;20485;-68
2022/02/01 15:36:31;;;;;;;10.13;1.15;;;;;;;;;;5034944;28;20050;-69
2022/02/01 15:58:42;;;;;;;6.43;0.98;;;;;;;;;;5040043;28;20049;-69
2022/02/01 16:01:18;;;;;;;1.35;0.82;;;;;;;;;;5036691;28;20084;-69
2022/02/01 16:03:47;;;;;;;2.38;0.63;;;;;;;;;;4983180;28;20057;-69
2022/02/01 16:06:17;;;;;;;1.17;0.82;;;;;;;;;;314246;28;10022757;-69
2022/02/01 16:08:47;;;;;;;0.60;0.60;;;;;;;;;;5029912;28;20394;-69
2022/02/01 16:11:23;;;;;;;2.20;0.77;;;;;;;;;;5062384;28;20052;-70
2022/02/01 16:13:59;;;;;;;1.00;0.60;;;;;;;;;;5061785;28;20056;-69
2022/02/01 16:16:28;;;;;;;1.67;0.80;;;;;;;;;;5060413;28;20071;-69
2022/02/01 16:19:03;;;;;;;0.63;0.50;;;;;;;;;;5054585;28;20120;-69
2022/02/01 16:21:32;;;;;;;1.77;0.65;;;;;;;;;;5059415;28;20504;-70
2022/02/01 16:24:01;;;;;;;2.92;0.75;;;;;;;;;;5063515;28;20052;-70
2022/02/01 16:26:30;;;;;;;3.50;0.82;;;;;;;;;;5066153;28;20106;-69
2022/02/01 16:29:01;;;;;;;5.47;0.80;;;;;;;;;;5055347;28;20317;-69
2022/02/01 16:31:32;;;;;;;1.55;0.80;;;;;;;;;;5064678;28;20126;-69
2022/02/01 16:34:01;;;;;;;1.35;0.60;;;;;;;;;;5059686;28;20067;-70
2022/02/01 16:36:41;;;;;;;1.10;0.75;;;;;;;;;;5059213;28;20079;-69
2022/02/01 16:39:12;;;;;;;2.17;0.95;;;;;;;;;;5058848;28;20126;-69
2022/02/01 16:41:42;;;;;;;1.23;0.70;;;;;;;;;;5079936;28;20125;-69
2022/02/01 16:44:24;;;;;;;1.55;0.60;;;;;;;;;;5085590;28;20056;-70
2022/02/01 16:46:54;;;;;;;2.42;0.70;;;;;;;;;;5077752;28;20044;-69
2022/02/01 16:49:23;;;;;;;0.75;0.60;;;;;;;;;;5075215;28;20466;-69
2022/02/01 16:51:53;;;;;;;0.57;0.50;;;;;;;;;;5079775;28;20119;-69
2022/02/01 16:54:32;;;;;;;2.22;0.68;;;;;;;;;;5078231;28;20052;-68
2022/02/01 16:57:09;;;;;;;2.80;0.70;;;;;;;;;;5084018;28;20068;-68
2022/02/01 16:59:41;;;;;;;0.88;0.47;;;;;;;;;;5078425;28;20044;-69
2022/02/01 17:02:10;;;;;;;1.83;0.75;;;;;;;;;;5086980;28;20123;-71
2022/02/01 17:04:39;;;;;;;1.67;0.70;;;;;;;;;;5079645;28;20048;-70
2022/02/01 17:07:10;;;;;;;4.25;0.80;;;;;;;;;;5077889;28;20051;-69
2022/02/01 17:09:38;;;;;;;0.70;0.50;;;;;;;;;;5083922;28;20106;-69
2022/02/01 17:12:14;;;;;;;2.88;0.52;;;;;;;;;;5070280;28;20127;-69